Time;durP1;ratioP1;P1;durP2;ratioP2;P2;SDS_P1;SDS_P2;PMS_P1;PMS_P2;Temp;Humidity;BMP_temperature;BMP_pressure;BME280_temperature;BME280_humidity;BME280_pressure;Samples;Min_cycle;Max_cycle;Signal;HPM_P1;HPM_P2
2022/07/04 00:01:23;;;;;;;6.50;6.20;;;;;;;14.19;86.28;101733.13;6013508;23;20030;-71
2022/07/04 00:03:49;;;;;;;4.93;4.72;;;;;;;14.27;87.71;101759.16;6027063;23;20090;-73
2022/07/04 00:06:16;;;;;;;5.30;5.10;;;;;;;14.09;87.01;101888.53;6022518;23;20046;-73
2022/07/04 00:08:42;;;;;;;4.90;4.70;;;;;;;14.29;88.14;101795.13;6022939;23;20081;-72
2022/07/04 00:11:09;;;;;;;4.88;4.68;;;;;;;14.27;87.80;101788.19;6029267;23;20093;-71
2022/07/04 00:13:35;;;;;;;5.57;5.28;;;;;;;14.07;88.35;101790.06;6019631;23;20038;-70
2022/07/04 00:16:02;;;;;;;5.00;4.80;;;;;;;14.19;89.22;101783.28;6028993;23;20119;-71
2022/07/04 00:18:28;;;;;;;6.65;6.35;;;;;;;13.73;88.96;101701.13;6021479;23;20044;-69
2022/07/04 00:20:55;;;;;;;4.80;4.60;;;;;;;13.79;90.05;101710.53;6026478;23;20264;-70
2022/07/04 00:23:21;;;;;;;6.10;5.80;;;;;;;14.04;90.99;101766.44;6018980;23;20566;-71
2022/07/04 00:25:48;;;;;;;4.80;4.60;;;;;;;13.94;90.37;101771.31;6025336;23;20532;-70
2022/07/04 00:28:14;;;;;;;8.40;5.07;;;;;;;13.99;90.46;101751.78;6022443;23;20139;-73
2022/07/04 00:30:40;;;;;;;4.82;4.63;;;;;;;14.02;89.59;101754.28;6023957;23;20015;-72
2022/07/04 00:33:13;;;;;;;4.75;4.55;;;;;;;13.96;89.38;101758.06;5974372;23;20015;-71
2022/07/04 00:35:40;;;;;;;;;;;;;;;13.89;89.96;101749.59;6019265;23;20030;-72
2022/07/04 00:38:06;;;;;;;4.80;4.60;;;;;;;13.87;89.48;101737.41;6027756;23;19917;-72
2022/07/04 00:40:33;;;;;;;5.97;5.68;;;;;;;13.84;89.65;101740.19;6020000;23;20089;-67
2022/07/04 00:43:03;;;;;;;4.70;4.50;;;;;;;13.59;90.92;101706.22;6022319;23;20182;-67
2022/07/04 00:45:30;;;;;;;6.47;6.18;;;;;;;13.75;90.96;101742.34;6029077;23;20074;-67
2022/07/04 00:47:57;;;;;;;4.90;4.70;;;;;;;13.73;90.87;101741.59;6024347;23;20018;-67
2022/07/04 00:50:24;;;;;;;6.53;6.22;;;;;;;13.76;90.55;101737.94;6016287;23;20130;-67
2022/07/04 00:52:53;;;;;;;4.90;4.70;;;;;;;13.73;90.30;101722.25;6026882;23;20050;-67
2022/07/04 00:55:22;;;;;;;6.47;6.18;;;;;;;13.31;90.93;101658.34;6020686;23;20094;-67
2022/07/04 00:57:49;;;;;;;4.88;4.68;;;;;;;13.61;90.36;101697.34;6029271;23;20097;-67
2022/07/04 01:00:18;;;;;;;5.47;5.25;;;;;;;13.76;89.82;101735.28;6020455;23;20048;-67
2022/07/04 01:02:45;;;;;;;5.57;5.07;;;;;;;13.57;89.93;101696.63;6024102;23;20451;-67
2022/07/04 01:05:12;;;;;;;4.80;4.60;;;;;;;13.72;90.61;101733.75;6021371;23;20082;-67
2022/07/04 01:07:39;;;;;;;4.80;4.60;;;;;;;13.68;90.26;101730.38;5965148;23;20211;-66
2022/07/04 01:10:06;;;;;;;4.80;4.60;;;;;;;13.50;90.42;101697.00;6028959;23;20037;-66
2022/07/04 01:12:33;;;;;;;5.50;5.30;;;;;;;13.63;90.72;101721.84;6021315;23;20110;-65
2022/07/04 01:14:59;;;;;;;5.00;4.80;;;;;;;13.17;90.35;101656.34;6021414;23;20256;-66
2022/07/04 01:17:25;;;;;;;6.22;5.93;;;;;;;13.33;90.96;101681.97;6025184;23;20034;-65
2022/07/04 01:19:52;;;;;;;5.00;4.80;;;;;;;13.52;91.06;101719.72;6023299;23;20049;-68
2022/07/04 01:22:19;;;;;;;6.25;5.95;;;;;;;13.50;91.09;101726.84;6026614;23;20031;-66
2022/07/04 01:24:46;;;;;;;4.85;4.65;;;;;;;13.47;91.38;101732.28;6019271;23;20231;-66
2022/07/04 01:27:14;;;;;;;5.05;4.82;;;;;;;13.48;91.22;101719.94;6020373;23;20023;-68
2022/07/04 01:29:41;;;;;;;4.72;4.53;;;;;;;13.14;91.69;101676.69;6027173;23;20101;-66
2022/07/04 01:32:08;;;;;;;4.90;4.70;;;;;;;13.39;91.52;101725.66;6024151;23;20031;-66
2022/07/04 01:34:35;;;;;;;4.90;4.70;;;;;;;13.34;91.33;101745.19;6018972;23;20027;-66
2022/07/04 01:37:08;;;;;;;5.15;4.95;;;;;;;13.00;91.90;101685.25;6013925;23;20038;-66
2022/07/04 01:39:35;;;;;;;5.20;5.00;;;;;;;13.17;92.67;101714.31;6015581;23;20026;-66
2022/07/04 01:42:01;;;;;;;5.00;4.80;;;;;;;12.53;93.30;101618.03;6028277;23;20369;-66
2022/07/04 01:44:28;;;;;;;4.70;4.50;;;;;;;13.02;93.64;101733.47;6021158;23;20376;-68
2022/07/04 01:46:54;;;;;;;4.93;4.72;;;;;;;13.01;94.36;101723.88;6028135;23;20553;-73
2022/07/04 01:49:21;;;;;;;5.68;5.47;;;;;;;13.06;94.86;101719.22;6017056;23;20025;-71
2022/07/04 01:51:49;;;;;;;4.80;4.60;;;;;;;12.98;94.31;101713.47;6028036;23;20073;-70
2022/07/04 01:54:16;;;;;;;5.68;5.43;;;;;;;13.00;94.65;101713.41;6018764;23;20101;-71
2022/07/04 01:56:43;;;;;;;5.00;4.80;;;;;;;12.94;94.96;101730.34;6024431;23;20146;-70
2022/07/04 01:59:09;;;;;;;4.80;4.60;;;;;;;12.87;95.78;101732.41;6030362;23;20323;-73
2022/07/04 02:01:37;;;;;;;4.70;4.50;;;;;;;12.85;96.02;101736.88;5994777;23;20074;-72
2022/07/04 02:04:05;;;;;;;4.80;4.60;;;;;;;12.82;96.78;101746.69;6023468;23;20503;-71
2022/07/04 02:06:32;;;;;;;5.75;5.53;;;;;;;12.43;97.11;101681.69;5992494;23;20018;-70
2022/07/04 02:09:17;;;;;;;4.90;4.70;;;;;;;11.92;97.18;101602.34;6013927;23;20313;-66
2022/07/04 02:14:32;;;;;;;6.05;5.75;;;;;;;12.61;98.49;101773.06;6016851;23;20013;-67
2022/07/04 02:16:58;;;;;;;4.70;4.50;;;;;;;12.58;98.08;101752.13;6022582;23;20030;-66
2022/07/04 02:19:25;;;;;;;6.15;5.85;;;;;;;12.53;98.10;101756.75;6027676;23;20188;-66
2022/07/04 02:21:52;;;;;;;4.80;4.60;;;;;;;12.51;97.89;101755.97;5991296;23;20110;-66
2022/07/04 02:24:19;;;;;;;5.97;5.70;;;;;;;11.88;99.06;101667.34;6012034;23;20058;-67
2022/07/04 02:26:48;;;;;;;4.80;4.60;;;;;;;12.38;99.43;101771.41;6050646;23;20283;-67
2022/07/04 02:29:15;;;;;;;5.13;4.90;;;;;;;12.40;99.70;101759.03;6013058;23;20086;-67
2022/07/04 02:31:42;;;;;;;4.65;4.45;;;;;;;11.35;100.00;101588.94;6027408;23;20278;-66
2022/07/04 02:34:09;;;;;;;4.80;4.60;;;;;;;12.03;100.00;101715.88;6020688;23;20047;-67
2022/07/04 02:36:36;;;;;;;4.82;4.63;;;;;;;12.29;100.00;101759.50;5999671;23;20180;-71
2022/07/04 02:39:04;;;;;;;4.80;4.60;;;;;;;12.28;100.00;101755.16;6023045;23;20033;-66
2022/07/04 02:41:32;;;;;;;5.40;5.20;;;;;;;12.02;100.00;101732.56;6023476;23;20289;-68
2022/07/04 02:43:59;;;;;;;4.63;4.43;;;;;;;12.23;100.00;101761.53;6023763;23;20540;-65
2022/07/04 02:46:26;;;;;;;5.93;5.65;;;;;;;12.20;100.00;101775.66;6016413;23;20047;-68
2022/07/04 02:48:53;;;;;;;4.68;4.47;;;;;;;12.18;100.00;101766.97;5998875;23;20027;-65
2022/07/04 02:51:19;;;;;;;5.43;5.22;;;;;;;12.14;100.00;101781.19;6025259;23;20523;-68
2022/07/04 02:53:46;;;;;;;4.60;4.40;;;;;;;11.62;100.00;101691.25;6019152;23;20010;-66
2022/07/04 02:56:12;;;;;;;4.63;4.43;;;;;;;12.12;100.00;101775.97;6031351;23;20097;-65
2022/07/04 02:58:39;;;;;;;4.75;4.55;;;;;;;12.11;100.00;101774.28;6028052;23;20048;-66
2022/07/04 03:01:05;;;;;;;4.80;4.60;;;;;;;12.02;100.00;101763.28;5998047;23;20029;-66
2022/07/04 03:03:32;;;;;;;5.15;4.95;;;;;;;12.04;100.00;101774.59;6015918;23;20473;-66
2022/07/04 03:05:58;;;;;;;4.72;4.53;;;;;;;12.08;100.00;101789.34;5971917;23;20045;-67
2022/07/04 03:08:30;;;;;;;6.32;6.03;;;;;;;12.06;100.00;101786.75;5991354;23;20472;-67
2022/07/04 03:10:56;;;;;;;4.78;4.57;;;;;;;12.06;100.00;101796.44;5996647;23;20248;-66
2022/07/04 03:13:24;;;;;;;6.15;5.85;;;;;;;11.79;100.00;101749.28;6022079;23;20308;-66
2022/07/04 03:15:51;;;;;;;4.70;4.50;;;;;;;12.03;100.00;101791.28;5997272;23;20021;-66
2022/07/04 03:18:18;;;;;;;5.93;5.65;;;;;;;12.03;100.00;101822.84;6028142;23;20059;-65
2022/07/04 03:20:45;;;;;;;4.57;4.38;;;;;;;12.02;100.00;101821.16;6025590;23;20050;-66
2022/07/04 03:23:12;;;;;;;5.00;4.60;;;;;;;12.04;100.00;101814.91;6016890;23;20316;-66
2022/07/04 03:25:39;;;;;;;4.60;4.40;;;;;;;11.91;100.00;101801.41;6025042;23;20078;-66
2022/07/04 03:28:07;;;;;;;4.65;4.45;;;;;;;12.04;100.00;101833.34;6019598;23;20446;-71
2022/07/04 03:30:34;;;;;;;4.90;4.70;;;;;;;11.71;100.00;101765.34;6019662;23;20026;-69
2022/07/04 03:33:01;;;;;;;4.68;4.47;;;;;;;11.07;100.00;101660.13;6022679;23;20467;-66
2022/07/04 03:35:28;;;;;;;6.25;5.95;;;;;;;12.06;100.00;101818.34;6019464;23;20034;-70
2022/07/04 03:37:54;;;;;;;4.53;4.32;;;;;;;12.09;100.00;101844.53;6017574;23;20249;-66
2022/07/04 03:40:21;;;;;;;6.18;5.88;;;;;;;12.06;100.00;101817.50;6019641;23;20010;-67
2022/07/04 03:42:48;;;;;;;4.53;4.32;;;;;;;12.04;100.00;101803.53;6016304;23;20495;-67
2022/07/04 03:45:14;;;;;;;4.63;4.43;;;;;;;11.90;100.00;101785.69;6028151;23;20014;-68
2022/07/04 03:47:41;;;;;;;4.57;4.38;;;;;;;11.17;100.00;101651.81;6029678;23;20117;-67
2022/07/04 03:50:08;;;;;;;4.43;4.22;;;;;;;12.24;100.00;101826.41;6025805;23;20027;-68
2022/07/04 03:52:34;;;;;;;4.70;4.50;;;;;;;12.28;100.00;101828.00;6002101;23;20291;-68
2022/07/04 03:55:01;;;;;;;4.45;4.25;;;;;;;12.30;100.00;101831.41;6026011;23;20043;-67
2022/07/04 03:57:27;;;;;;;4.68;4.47;;;;;;;11.99;100.00;101769.53;5997290;23;20050;-68
2022/07/04 03:59:53;;;;;;;4.60;4.40;;;;;;;11.23;100.00;101636.75;6028954;23;20011;-68
2022/07/04 04:02:20;;;;;;;4.60;4.40;;;;;;;12.16;100.00;101780.19;6033070;23;20303;-67
2022/07/04 04:07:31;;;;;;;5.93;5.65;;;;;;;12.50;100.00;101833.22;6021610;23;20491;-67
2022/07/04 04:09:58;;;;;;;4.40;4.20;;;;;;;12.56;100.00;101822.44;6021537;23;20085;-66
2022/07/04 04:12:24;;;;;;;6.07;5.78;;;;;;;12.68;100.00;101829.81;6021538;23;20018;-70
2022/07/04 04:14:50;;;;;;;4.80;4.60;;;;;;;13.39;100.00;101839.03;6028521;23;20437;-69
2022/07/04 04:17:17;;;;;;;4.50;4.30;;;;;;;14.18;97.85;101786.03;6024778;23;20157;-67
2022/07/04 04:19:44;;;;;;;4.78;4.57;;;;;;;15.80;90.34;101860.41;6031327;23;20504;-72
2022/07/04 04:22:10;;;;;;;7.72;7.32;;;;;;;16.53;82.31;101812.94;6024032;23;20022;-67
2022/07/04 04:24:36;;;;;;;5.00;4.80;;;;;;;17.59;77.35;101861.34;6022274;23;20040;-67
2022/07/04 04:27:04;;;;;;;4.93;4.72;;;;;;;18.34;72.86;101860.00;6024748;23;20026;-67
2022/07/04 04:29:30;;;;;;;6.38;6.07;;;;;;;18.82;69.50;101847.97;6016621;23;20531;-67
2022/07/04 04:31:57;;;;;;;5.30;5.10;;;;;;;19.47;66.60;101878.94;6029251;23;20081;-67
2022/07/04 04:34:23;;;;;;;6.43;6.10;;;;;;;19.89;64.21;101868.84;6022177;23;20308;-67
2022/07/04 04:36:49;;;;;;;5.40;5.10;;;;;;;20.17;61.95;101861.50;6000158;23;20409;-67
2022/07/04 04:39:16;;;;;;;6.03;5.72;;;;;;;20.26;59.58;102042.06;6022845;23;20110;-67
2022/07/04 04:41:42;;;;;;;5.35;5.07;;;;;;;20.62;59.71;102011.88;6025314;23;20027;-67
2022/07/04 04:44:09;;;;;;;5.50;5.20;;;;;;;21.12;58.51;102004.56;6026532;23;20026;-67
2022/07/04 04:46:35;;;;;;;5.45;5.25;;;;;;;21.39;56.60;102030.13;6022311;23;20014;-67
2022/07/04 04:49:02;;;;;;;5.30;5.10;;;;;;;21.75;55.43;102011.38;6014604;23;20053;-67
2022/07/04 04:51:28;;;;;;;6.53;6.22;;;;;;;21.87;54.49;101860.75;6021880;23;20043;-68
2022/07/04 04:53:55;;;;;;;5.50;5.30;;;;;;;21.39;52.74;101858.34;6025897;23;20147;-67
2022/07/04 04:56:21;;;;;;;8.98;6.95;;;;;;;21.85;52.76;102085.38;6025496;23;20030;-67
2022/07/04 04:58:48;;;;;;;5.80;5.50;;;;;;;22.55;51.59;102066.53;6029041;23;20540;-68
2022/07/04 05:01:14;;;;;;;5.72;5.50;;;;;;;22.83;50.84;102027.63;6017470;23;20026;-64
2022/07/04 05:04:01;;;;;;;5.35;5.15;;;;;;;22.50;49.86;102021.44;6023505;23;20538;-67
2022/07/04 05:06:27;;;;;;;6.20;5.90;;;;;;;22.79;49.33;101945.88;6027753;23;20527;-67
2022/07/04 05:08:54;;;;;;;5.75;5.45;;;;;;;23.42;47.67;101909.22;6033978;23;20026;-67
2022/07/04 05:11:20;;;;;;;5.70;5.40;;;;;;;23.71;47.51;101895.09;6032265;23;20800;-67
2022/07/04 05:13:47;;;;;;;5.80;5.50;;;;;;;22.16;47.51;101846.81;6032596;23;20172;-67
2022/07/04 05:16:13;;;;;;;5.70;5.40;;;;;;;23.07;48.69;101877.47;6007655;23;20086;-67
2022/07/04 05:18:40;;;;;;;5.50;5.30;;;;;;;21.60;49.79;101861.16;6034915;23;20031;-67
2022/07/04 05:21:06;;;;;;;5.80;5.50;;;;;;;21.99;50.93;101849.06;6036037;23;20028;-66
2022/07/04 05:23:33;;;;;;;5.97;5.68;;;;;;;22.46;49.26;101864.81;6035648;23;20471;-67
2022/07/04 05:25:59;;;;;;;5.57;5.28;;;;;;;21.84;51.23;101844.97;6035171;23;20038;-67
2022/07/04 05:28:25;;;;;;;7.13;6.82;;;;;;;22.89;48.99;102193.09;6023422;23;20156;-67
2022/07/04 05:30:52;;;;;;;5.57;5.28;;;;;;;21.88;48.49;102017.47;6051097;23;20514;-67
2022/07/04 05:33:18;;;;;;;6.75;6.45;;;;;;;23.49;47.82;102070.31;6025416;23;20021;-67
2022/07/04 05:35:45;;;;;;;5.38;5.18;;;;;;;23.65;47.29;102013.56;5995017;23;20458;-67
2022/07/04 05:38:11;;;;;;;5.60;5.40;;;;;;;23.24;46.42;101886.75;6031428;23;20089;-67
2022/07/04 05:40:38;;;;;;;5.60;5.40;;;;;;;23.08;48.36;101936.25;6025969;23;20019;-67
2022/07/04 05:43:04;;;;;;;5.40;5.20;;;;;;;23.86;46.28;101858.91;6029540;23;20032;-67
2022/07/04 05:45:31;;;;;;;6.45;6.15;;;;;;;24.38;45.42;101882.78;6020290;23;20280;-67
2022/07/04 05:47:57;;;;;;;5.97;5.68;;;;;;;23.67;45.12;102074.09;6024041;23;20097;-67
2022/07/04 05:50:24;;;;;;;6.88;6.47;;;;;;;24.67;44.75;102043.84;6016422;23;20351;-67
2022/07/04 05:52:56;;;;;;;5.80;5.50;;;;;;;24.34;45.57;101918.94;6024330;23;20988;-69
2022/07/04 05:55:22;;;;;;;7.10;6.60;;;;;;;24.35;45.30;101904.53;6036684;23;20076;-68
2022/07/04 05:57:49;;;;;;;5.60;5.40;;;;;;;24.79;44.29;101866.53;6036008;23;20029;-69
2022/07/04 06:00:15;;;;;;;6.82;6.43;;;;;;;25.17;44.13;101864.72;6024620;23;20476;-68
2022/07/04 06:02:42;;;;;;;6.15;5.75;;;;;;;25.24;43.64;101810.28;6020478;23;20407;-66
2022/07/04 06:05:10;;;;;;;6.00;5.70;;;;;;;25.07;43.83;101844.09;6027212;23;20522;-67
2022/07/04 06:07:37;;;;;;;6.10;5.80;;;;;;;25.82;43.77;101852.09;6019810;23;20086;-67
2022/07/04 06:10:05;;;;;;;6.00;5.70;;;;;;;25.53;43.55;101800.34;6029384;23;20357;-67
2022/07/04 06:12:31;;;;;;;6.85;6.55;;;;;;;24.45;45.45;101835.59;6020627;23;20706;-67
2022/07/04 06:14:58;;;;;;;5.90;5.60;;;;;;;25.37;44.02;101860.97;6020750;23;20300;-67
2022/07/04 06:17:25;;;;;;;7.10;6.80;;;;;;;26.26;42.56;101852.19;6024628;23;20272;-68
2022/07/04 06:19:51;;;;;;;6.50;5.50;;;;;;;26.23;42.62;101855.19;6023998;23;21588;-67
2022/07/04 06:22:18;;;;;;;6.95;6.65;;;;;;;25.17;44.24;101794.88;6025152;23;20274;-67
2022/07/04 06:24:50;;;;;;;5.60;5.40;;;;;;;25.80;42.91;101848.72;6025675;23;20031;-68
2022/07/04 06:27:17;;;;;;;6.47;6.15;;;;;;;24.10;45.89;101763.78;6021859;23;20272;-67
2022/07/04 06:29:43;;;;;;;6.05;5.75;;;;;;;23.67;46.63;101776.59;6023463;23;20472;-68
2022/07/04 06:32:10;;;;;;;5.90;5.60;;;;;;;23.79;46.23;101753.19;6021577;23;20089;-66
2022/07/04 06:37:21;;;;;;;7.30;7.00;;;;;;;22.00;52.24;101785.75;6012365;23;20526;-66
2022/07/04 06:39:48;;;;;;;7.47;5.55;;;;;;;21.52;53.56;101785.16;6022779;23;20245;-69
2022/07/04 06:42:14;;;;;;;6.35;6.05;;;;;;;21.60;56.07;101810.41;6030008;23;20021;-67
2022/07/04 06:44:40;;;;;;;6.00;5.70;;;;;;;21.82;55.29;101810.34;6019480;23;20025;-68
2022/07/04 06:47:07;;;;;;;5.80;5.50;;;;;;;21.52;54.56;101806.53;5997206;23;20409;-68
2022/07/04 06:49:34;;;;;;;6.00;5.70;;;;;;;20.96;56.84;101790.53;6017837;23;20019;-68
2022/07/04 06:52:00;;;;;;;5.90;5.60;;;;;;;21.17;54.55;101808.47;6018706;23;20312;-67
2022/07/04 06:54:27;;;;;;;6.90;6.60;;;;;;;20.50;55.56;101808.25;6017779;23;20190;-67
2022/07/04 06:56:53;;;;;;;5.75;5.53;;;;;;;20.33;57.63;101812.22;6022677;23;20453;-67
2022/07/04 06:59:39;;;;;;;5.80;5.50;;;;;;;20.40;58.56;101767.28;6017774;23;20021;-68
2022/07/04 07:02:07;;;;;;;5.55;5.35;;;;;;;20.53;55.25;101777.88;6027428;23;20459;-68
2022/07/04 07:04:33;;;;;;;5.53;5.22;;;;;;;20.71;55.00;101812.97;5991690;23;20130;-67
2022/07/04 07:06:59;;;;;;;5.55;5.35;;;;;;;20.91;55.41;101828.25;6019382;23;20009;-67
2022/07/04 07:09:26;;;;;;;6.85;6.55;;;;;;;20.84;52.88;101784.34;6026669;23;20053;-68
2022/07/04 07:11:52;;;;;;;5.95;5.65;;;;;;;21.05;51.97;101805.84;6023019;23;20581;-67
2022/07/04 07:14:19;;;;;;;6.85;6.53;;;;;;;21.02;50.76;101807.88;6022538;23;20026;-73
2022/07/04 07:16:45;;;;;;;5.60;5.35;;;;;;;21.27;49.19;101806.81;5993074;23;20053;-67
2022/07/04 07:19:12;;;;;;;5.60;5.40;;;;;;;20.82;48.45;101708.06;6029302;23;20030;-66
2022/07/04 07:21:38;;;;;;;5.38;5.18;;;;;;;21.68;47.00;101816.81;6000918;23;20086;-67
2022/07/04 07:24:04;;;;;;;5.47;5.28;;;;;;;21.79;46.19;101817.75;6022933;23;20027;-67
2022/07/04 07:26:31;;;;;;;6.35;6.05;;;;;;;21.65;46.55;101825.09;6019173;23;20274;-67
2022/07/04 07:28:57;;;;;;;5.43;5.22;;;;;;;21.62;46.41;101811.13;6001559;23;20041;-67
2022/07/04 07:31:24;;;;;;;5.47;5.28;;;;;;;21.37;48.96;101812.22;6028756;23;20113;-67
2022/07/04 07:33:50;;;;;;;5.55;5.35;;;;;;;21.24;50.10;101807.88;6022877;23;20019;-67
2022/07/04 07:36:17;;;;;;;5.97;5.70;;;;;;;21.52;48.15;101811.03;6020332;23;20075;-67
2022/07/04 07:38:43;;;;;;;5.70;5.40;;;;;;;21.39;48.37;101824.50;6026769;23;20318;-66
2022/07/04 07:41:10;;;;;;;5.30;5.10;;;;;;;21.28;46.54;101792.47;6031272;23;20247;-74
2022/07/04 07:43:38;;;;;;;5.25;5.05;;;;;;;21.45;45.79;101808.00;5998942;23;20070;-73
2022/07/04 07:46:08;;;;;;;5.35;5.15;;;;;;;21.17;50.08;101798.66;6037068;23;20027;-72
2022/07/04 07:48:35;;;;;;;5.68;5.40;;;;;;;20.97;49.62;101786.03;6016551;23;20243;-67
2022/07/04 07:51:01;;;;;;;5.47;5.28;;;;;;;20.42;51.58;101799.16;6023948;23;20082;-68
2022/07/04 07:53:28;;;;;;;6.10;5.80;;;;;;;20.66;50.84;101793.78;6039903;23;20081;-72
2022/07/04 07:55:54;;;;;;;6.40;6.00;;;;;;;20.77;51.43;101756.47;6054053;23;20469;-67
2022/07/04 07:58:21;;;;;;;7.65;7.25;;;;;;;21.00;48.53;101781.31;6025186;23;20030;-68
2022/07/04 08:00:47;;;;;;;5.40;5.20;;;;;;;21.19;48.73;101793.19;5993349;23;20117;-67
2022/07/04 08:06:09;;;;;;;5.30;5.10;;;;;;;21.39;46.12;101784.44;6028463;23;20027;-67
2022/07/04 08:08:35;;;;;;;5.60;5.30;;;;;;;20.98;46.91;101753.91;6018036;23;20031;-67
2022/07/04 08:11:03;;;;;;;5.40;5.20;;;;;;;21.20;45.90;101800.25;6005109;23;20015;-68
2022/07/04 08:13:30;;;;;;;6.82;6.53;;;;;;;21.48;46.82;101799.75;6025308;23;20091;-67
2022/07/04 08:15:57;;;;;;;5.10;4.90;;;;;;;21.57;46.29;101810.66;6005608;23;20036;-72
2022/07/04 08:18:24;;;;;;;6.22;5.93;;;;;;;21.51;46.77;101783.47;6031962;23;20022;-74
2022/07/04 08:20:51;;;;;;;5.18;4.97;;;;;;;21.71;47.56;101810.41;6003508;23;20095;-70
2022/07/04 08:23:32;;;;;;;6.35;6.05;;;;;;;21.48;48.24;101810.44;6023705;23;20532;-67
2022/07/04 08:26:00;;;;;;;5.40;5.20;;;;;;;21.28;47.57;101793.31;6004879;23;20023;-71
2022/07/04 08:28:28;;;;;;;6.65;6.35;;;;;;;21.11;47.65;101789.31;6026385;23;20480;-67
2022/07/04 08:30:55;;;;;;;5.35;5.15;;;;;;;21.39;48.44;101794.25;6027355;23;20015;-67
2022/07/04 08:33:21;;;;;;;6.55;6.25;;;;;;;21.50;46.43;101815.66;6028782;23;20065;-67
2022/07/04 08:35:48;;;;;;;5.28;5.07;;;;;;;21.81;45.25;101795.31;5999369;23;20027;-67
2022/07/04 08:38:16;;;;;;;5.35;5.15;;;;;;;21.68;44.80;101784.75;6020806;23;20097;-68
2022/07/04 08:40:43;;;;;;;5.45;5.15;;;;;;;21.88;45.77;101775.09;5996783;23;20022;-72
2022/07/04 08:43:13;;;;;;;5.30;5.10;;;;;;;22.24;44.49;101813.13;6023007;23;20094;-68
2022/07/04 08:45:41;;;;;;;5.10;4.90;;;;;;;22.06;45.25;101810.13;6029435;23;20042;-70
2022/07/04 08:48:30;;;;;;;6.80;6.45;;;;;;;22.17;46.98;101955.44;6017382;23;20032;-67
2022/07/04 08:50:59;;;;;;;5.20;5.00;;;;;;;21.65;46.55;101806.41;6016843;23;20116;-68
2022/07/04 08:53:31;;;;;;;6.28;5.97;;;;;;;21.66;45.81;101801.91;6008946;23;20035;-71
2022/07/04 08:58:45;;;;;;;5.40;5.20;;;;;;;21.68;45.48;101773.22;5965824;23;20017;-73
2022/07/04 09:01:14;;;;;;;5.10;4.90;;;;;;;21.28;45.95;101757.75;6027388;23;20280;-74
2022/07/04 09:03:43;;;;;;;5.65;5.30;;;;;;;22.21;45.74;101813.38;5998673;23;20517;-68
2022/07/04 09:06:11;;;;;;;5.20;5.00;;;;;;;22.35;45.38;101816.72;6031666;23;20048;-69
2022/07/04 09:08:39;;;;;;;5.80;5.50;;;;;;;22.47;45.29;101775.53;6018586;23;20046;-69
2022/07/04 09:11:07;;;;;;;5.00;4.80;;;;;;;23.01;44.10;101819.06;6022662;23;20355;-71
2022/07/04 09:13:33;;;;;;;6.20;5.90;;;;;;;23.10;43.23;101783.50;6026743;23;20078;-72
2022/07/04 09:16:01;;;;;;;5.75;5.45;;;;;;;23.01;44.01;101787.81;5992806;23;20114;-66
2022/07/04 09:18:29;;;;;;;7.32;6.95;;;;;;;23.17;42.79;101797.19;6027455;23;20035;-69
2022/07/04 09:20:58;;;;;;;5.50;5.30;;;;;;;23.23;42.70;101805.56;6005432;23;20022;-67
2022/07/04 09:23:30;;;;;;;6.60;6.30;;;;;;;23.24;42.59;101796.53;6024225;23;20033;-67
2022/07/04 09:26:09;;;;;;;5.30;5.10;;;;;;;23.59;42.17;101813.09;6009658;23;20031;-65
2022/07/04 09:28:36;;;;;;;5.60;5.40;;;;;;;23.70;42.36;101804.94;6014651;23;20039;-68
2022/07/04 09:31:20;;;;;;;5.40;5.20;;;;;;;23.89;41.93;101801.47;5998871;23;20101;-67
2022/07/04 09:33:46;;;;;;;5.50;5.30;;;;;;;23.79;42.59;101804.13;6029337;23;20153;-66
2022/07/04 09:36:14;;;;;;;5.43;5.22;;;;;;;23.69;42.26;101789.84;6024459;23;20015;-66
2022/07/04 09:38:41;;;;;;;5.18;4.97;;;;;;;23.64;41.17;101768.00;6000871;23;20016;-69
2022/07/04 09:41:29;;;;;;;6.78;6.38;;;;;;;24.09;39.38;101811.22;6032198;23;20083;-66
2022/07/04 09:44:04;;;;;;;6.78;5.18;;;;;;;24.04;40.37;101786.66;6029354;23;20114;-66
2022/07/04 09:46:31;;;;;;;6.70;6.40;;;;;;;22.90;39.66;101622.78;6021329;23;20027;-66
2022/07/04 09:48:58;;;;;;;5.55;5.35;;;;;;;23.75;40.21;101788.44;6012897;23;20019;-66
2022/07/04 09:51:37;;;;;;;6.80;6.50;;;;;;;24.05;41.16;101795.53;6023011;23;20676;-69
2022/07/04 09:54:15;;;;;;;5.30;5.10;;;;;;;24.08;40.54;101774.66;6019677;23;20025;-69
2022/07/04 09:56:44;;;;;;;5.30;5.10;;;;;;;24.31;40.29;101800.31;6024558;23;20516;-66
2022/07/04 09:59:11;;;;;;;5.90;5.40;;;;;;;23.30;40.05;101693.34;6019045;23;20145;-65
2022/07/04 10:01:39;;;;;;;5.60;5.30;;;;;;;23.35;40.27;101787.50;5999451;23;20035;-70
2022/07/04 10:04:07;;;;;;;5.25;5.05;;;;;;;23.21;40.51;101769.16;6026533;23;20037;-66
2022/07/04 10:06:34;;;;;;;7.13;6.65;;;;;;;23.48;42.16;101753.28;5999186;23;20030;-69
2022/07/04 10:09:11;;;;;;;5.32;5.13;;;;;;;23.81;40.51;101799.47;6030585;23;20046;-68
2022/07/04 10:11:39;;;;;;;5.30;5.07;;;;;;;23.87;39.43;101793.59;6024536;23;20316;-64
2022/07/04 10:14:08;;;;;;;5.40;5.20;;;;;;;23.70;39.81;101767.44;6035535;23;20034;-70
2022/07/04 10:16:35;;;;;;;6.22;5.93;;;;;;;23.54;41.17;101751.06;6026460;23;20406;-66
2022/07/04 10:19:03;;;;;;;5.40;5.20;;;;;;;23.91;41.19;101763.78;6031340;23;20166;-69
2022/07/04 10:21:31;;;;;;;6.63;6.32;;;;;;;24.47;40.20;101779.94;6027080;23;20491;-66
2022/07/04 10:23:58;;;;;;;5.30;5.10;;;;;;;24.54;37.64;101780.25;5998565;23;20038;-69
2022/07/04 10:26:28;;;;;;;6.55;6.25;;;;;;;24.34;37.49;101749.91;6032830;23;20174;-69
2022/07/04 10:28:54;;;;;;;5.28;5.07;;;;;;;24.87;38.88;101796.81;5991835;23;20035;-68
2022/07/04 10:31:23;;;;;;;6.65;6.35;;;;;;;24.93;38.58;101790.03;6020233;23;20022;-66
2022/07/04 10:33:51;;;;;;;5.47;5.28;;;;;;;24.57;38.00;101750.44;5999823;23;20027;-66
2022/07/04 10:36:30;;;;;;;6.00;5.70;;;;;;;24.35;38.80;101769.53;6020068;23;20022;-66
2022/07/04 10:38:59;;;;;;;5.53;5.32;;;;;;;24.27;38.36;101771.09;5995839;23;20079;-68
2022/07/04 10:41:28;;;;;;;6.18;5.88;;;;;;;23.93;39.06;101759.13;6017680;23;20041;-66
2022/07/04 10:44:14;;;;;;;5.50;5.30;;;;;;;24.38;39.00;101747.78;6004633;23;20027;-69
2022/07/04 10:46:49;;;;;;;5.75;5.45;;;;;;;24.89;40.23;101961.31;6020920;23;20675;-68
2022/07/04 10:49:19;;;;;;;5.50;5.30;;;;;;;24.83;38.12;101884.88;6002001;23;20109;-69
2022/07/04 10:51:47;;;;;;;5.35;5.15;;;;;;;25.31;38.30;101842.75;6023084;23;20030;-67
2022/07/04 10:54:19;;;;;;;5.95;5.65;;;;;;;25.19;37.89;101757.94;6025098;23;20030;-70
2022/07/04 10:56:47;;;;;;;5.68;5.38;;;;;;;25.51;38.25;101751.28;5998838;23;20003;-70
2022/07/04 10:59:25;;;;;;;5.40;5.20;;;;;;;25.85;37.70;101754.94;5991668;23;20041;-66
2022/07/04 11:02:08;;;;;;;5.65;5.43;;;;;;;25.27;37.25;101740.09;6024372;23;20027;-69
2022/07/04 11:04:55;;;;;;;5.50;5.30;;;;;;;25.52;39.31;101736.81;5989836;23;20081;-68
2022/07/04 11:07:42;;;;;;;6.90;6.53;;;;;;;25.32;37.96;101745.03;6017238;23;20034;-66
2022/07/04 11:10:21;;;;;;;5.47;5.28;;;;;;;25.52;38.13;101736.81;6041018;23;20074;-66
2022/07/04 11:12:54;;;;;;;5.53;5.32;;;;;;;25.64;36.29;101746.38;6029514;23;20022;-66
2022/07/04 11:15:24;;;;;;;6.93;6.63;;;;;;;25.75;36.68;101750.66;6045051;23;20799;-70
2022/07/04 11:17:52;;;;;;;5.65;5.35;;;;;;;25.64;36.59;101723.00;6032850;23;20753;-69
2022/07/04 11:20:19;;;;;;;7.45;7.05;;;;;;;25.52;37.89;101718.00;6025892;23;20022;-70
2022/07/04 11:22:45;;;;;;;5.28;5.07;;;;;;;25.73;37.77;101713.16;6029097;23;20019;-69
2022/07/04 11:25:12;;;;;;;5.25;5.05;;;;;;;25.81;35.91;101715.09;6025945;23;20038;-66
2022/07/04 11:27:39;;;;;;;5.60;5.40;;;;;;;25.59;36.88;101662.63;6035283;23;20627;-66
2022/07/04 11:30:07;;;;;;;5.50;5.30;;;;;;;26.01;35.55;101723.84;5996796;23;20091;-66
2022/07/04 11:32:38;;;;;;;5.85;5.55;;;;;;;26.15;37.25;101714.38;6030909;23;20031;-65
2022/07/04 11:35:06;;;;;;;5.55;5.28;;;;;;;25.88;35.97;101697.34;6003414;23;20014;-66
2022/07/04 11:37:33;;;;;;;5.78;5.57;;;;;;;25.91;37.96;101712.34;6026366;23;20449;-66
2022/07/04 11:45:53;;;;;;;5.80;5.50;;;;;;;24.07;38.75;101686.28;6022233;23;20516;-71
2022/07/04 11:48:24;;;;;;;6.45;6.15;;;;;;;24.18;39.10;101690.66;5990461;23;20109;-68